Carmen — SMGW — position and weather

sailwx.info

Track history (hours):
 
Tides and Currents Weather Stations Pressure Air Temp Water Temp Dewpoint Dewpoint Depression Visibility Wind Speed Wind Dir Waves Ship Positions

Carmen

Last reported at 2015-May-24 12:00 UTC. Time now 2015-May-24 13:23 UTC.
Position N 37°54' W 070°18'.

Length 228 m; draft 8.9 m.

Type: Cargo ship. MMSI: 266339000.

Wind from 250 at 6 knots

Waves 0.5 meters (2 feet), 2 second period

Barometer 1030.7 mb
Air temperature 17.5 ° C
Visibility: greater than 10.8 NM
Water temperature 25.8 ° C

Date/timePositionNaut miles runAvg speedWind from/ knotsBaromVisibWave heightAir tempDewpointWater temp
2015-May-24 12:00N 37°54' W 070°18'511.3 250 / 61030.710.8 0.517.5 25.8
2015-May-24 11:33N 37°55' W 070°24'1715.5
2015-May-24 10:28N 38°07' W 070°40'1313.9
2015-May-24 09:33N 38°15' W 070°51'3112.6
2015-May-24 07:05N 38°37' W 071°21'9 8.4
2015-May-24 06:00N 38°42' W 071°30'2316.2 230 / 81029.610.8 13.3 15.3
2015-May-24 04:33N 38°59' W 071°51'1414.2
2015-May-24 03:33N 39°08' W 072°04'1413.9
2015-May-24 02:33N 39°18' W 072°17'1413.7
2015-May-24 01:34N 39°27' W 072°30'1413.7
2015-May-24 00:34N 39°37' W 072°43'1017.4
2015-May-24 00:00N 39°42' W 072°54'510.2 230 / 161029.010.8 0.511.9 13.9
2015-May-23 23:31N 39°46' W 072°56'1313.6
2015-May-23 22:32N 39°55' W 073°10'1313.1
2015-May-23 21:33N 40°04' W 073°22'1413.0
2015-May-23 20:28N 40°14' W 073°34'1313.0
2015-May-23 19:30N 40°24' W 073°46'1313.9
2015-May-23 18:34N 40°31' W 073°60'10 9.8
2015-May-23 17:34N 40°39' W 074°08'3 3.2
2015-May-23 16:33N 40°42' W 074°09'0 0.0
2015-May-23 15:33N 40°42' W 074°09'0 0.0
2015-May-23 14:33N 40°42' W 074°09'0 0.0
2015-May-23 13:33N 40°42' W 074°09'0 0.0
2015-May-23 12:33N 40°42' W 074°09'0 0.0
2015-May-23 11:33N 40°42' W 074°09'0 0.0
2015-May-23 10:33N 40°42' W 074°09'2 2.1
2015-May-23 09:33N 40°40' W 074°08'5 4.6
2015-May-23 08:33N 40°38' W 074°03'1111.1
2015-May-23 07:33N 40°29' W 073°54'9 8.7
2015-May-23 06:33N 40°22' W 073°47'356638.0
2015-May-23 06:00N 46°18' W 073°48'372545.2 320 / 231021.810.8 14.6 14.4
2015-May-23 05:19N 40°06' W 073°45'1012.7
2015-May-23 04:33N 39°57' W 073°44'1312.7
2015-May-23 03:33N 39°44' W 073°44'1312.9
2015-May-23 02:33N 39°32' W 073°50'1313.1
2015-May-23 01:32N 39°20' W 073°56'1413.4
2015-May-23 00:32N 39°07' W 074°03'814.2
2015-May-23 00:00N 39°00' W 074°06'8113.5 230 / 171018.410.8 1.016.9 15.2
2015-May-22 18:00N 37°48' W 074°54'7212.0 250 / 121019.410.8 0.517.6 15.5
2015-May-22 12:00N 36°54' W 075°54'6015.7 330 / 191018.610.8 1.514.5 17.5
2015-May-22 08:09N 37°53' W 076°10'5418.7
2015-May-22 05:17N 38°45' W 076°26'2615.1
2015-May-22 03:32N 39°11' W 076°29'4 4.2
2015-May-22 02:32N 39°15' W 076°32'0 0.0
2015-May-21 22:23N 39°15' W 076°32'0 0.0
2015-May-21 17:32N 39°15' W 076°32'0 0.0
2015-May-21 16:32N 39°15' W 076°32'0 0.0
2015-May-21 15:23N 39°15' W 076°32'0 0.0
2015-May-21 12:08N 39°15' W 076°32'0 0.0
2015-May-21 09:29N 39°15' W 076°32'7 7.1
2015-May-21 08:29N 39°10' W 076°25'1212.6
2015-May-21 07:32N 38°58' W 076°24'5817.8
2015-May-21 04:16N 38°01' W 076°12'151 5.3
2015-May-20 00:00N 35°36' W 075°18'5712.9 260 / 161013.0 5.4 0.521.5 18.9
2015-May-19 19:34N 34°43' W 075°44'1616.4
2015-May-19 18:33N 34°32' W 075°59'69121.0
2015-May-19 18:00N 33°24' W 076°06'58132.3 230 / 171016.410.8 0.528.6 24.9
2015-May-19 17:33N 34°21' W 076°14'1716.5
2015-May-19 16:32N 34°10' W 076°29'7215.9
2015-May-19 12:00N 33°24' W 077°36'4914.2 250 / 121017.710.8 0.523.8 24.1
2015-May-19 08:32N 32°57' W 078°25'3614.3
2015-May-19 06:00N 32°36' W 079°00'4813.8 230 / 141019.310.8 23.4 24.4
2015-May-19 02:33N 32°13' W 079°49'1414.4
2015-May-19 01:33N 32°06' W 080°04'1616.3
2015-May-19 00:33N 31°58' W 080°20'1424.2
2015-May-19 00:00N 31°54' W 080°36'3 6.2 180 / 161019.910.8 0.523.9 24.5
2015-May-18 23:33N 31°56' W 080°38'1413.6
2015-May-18 22:33N 32°02' W 080°53'9 8.6
2015-May-18 21:34N 32°05' W 081°02'3 3.2
2015-May-18 20:32N 32°05' W 081°06'0 0.0
2015-May-18 19:33N 32°05' W 081°06'0 0.0
2015-May-18 18:33N 32°05' W 081°06'0 0.0
2015-May-18 17:32N 32°05' W 081°06'0 0.0
2015-May-18 16:33N 32°05' W 081°06'0 0.0
2015-May-18 15:32N 32°05' W 081°06'0 0.0
2015-May-18 14:32N 32°05' W 081°06'0 0.0
2015-May-18 13:32N 32°05' W 081°06'0 0.0
2015-May-18 12:32N 32°05' W 081°06'0 0.0
2015-May-18 11:32N 32°05' W 081°06'0 0.0
2015-May-18 10:32N 32°05' W 081°06'0 0.0
2015-May-18 09:32N 32°05' W 081°06'0 0.0
2015-May-18 08:32N 32°05' W 081°06'0 0.0
2015-May-18 07:32N 32°05' W 081°06'0 0.0
2015-May-18 06:32N 32°05' W 081°06'0 0.0
2015-May-18 05:33N 32°05' W 081°06'0 0.0
2015-May-18 04:32N 32°05' W 081°06'0 0.0
2015-May-18 03:32N 32°05' W 081°06'0 0.0
2015-May-18 02:32N 32°05' W 081°06'0 0.0
2015-May-18 01:32N 32°05' W 081°06'0 0.0
2015-May-18 00:32N 32°05' W 081°06'0 0.0
2015-May-17 23:32N 32°05' W 081°06'0 0.0
2015-May-17 22:32N 32°05' W 081°06'0 0.0
2015-May-17 21:32N 32°05' W 081°06'0 0.0
2015-May-17 20:32N 32°05' W 081°06'0 0.0
2015-May-17 19:33N 32°05' W 081°06'0 0.0
2015-May-17 18:32N 32°05' W 081°06'0 0.0
2015-May-17 17:32N 32°05' W 081°06'0 0.0
2015-May-17 16:32N 32°05' W 081°06'0 0.0
2015-May-17 15:32N 32°05' W 081°06'0 0.0
2015-May-17 14:32N 32°05' W 081°06'0 0.0
2015-May-17 13:32N 32°05' W 081°06'0 0.0
2015-May-17 12:32N 32°05' W 081°06'0 0.0
2015-May-17 11:32N 32°05' W 081°06'0 0.0
2015-May-17 10:32N 32°05' W 081°06'0 0.1
2015-May-17 09:34N 32°05' W 081°06'0 0.1
2015-May-17 08:34N 32°05' W 081°06'8 7.8
2015-May-17 07:33N 32°04' W 080°57'1312.7
2015-May-17 06:34N 31°58' W 080°44'1010.5
2015-May-17 05:33N 31°51' W 080°34'8 8.4
2015-May-17 04:33N 31°43' W 080°35'40 8.8
2015-May-17 00:00N 31°06' W 080°54'12 0.7 080 / 81023.010.8 0.523.5 24.7
2015-May-16 06:00N 30°54' W 080°54'6510.8 120 / 121024.110.8 22.9 23.3
2015-May-16 00:00N 30°00' W 080°12'9415.6 080 / 161023.110.8 1.023.8 27.1
2015-May-15 18:00N 28°36' W 079°24'7212.0 080 / 171022.910.8 1.024.9 27.9
2015-May-15 12:00N 27°24' W 079°18'6417.2 090 / 141021.110.8 1.025.6 28.0
2015-May-15 08:18N 26°21' W 079°28'1418.3
2015-May-15 07:33N 26°08' W 079°30'1818.3
2015-May-15 06:33N 25°49' W 079°33'1424.2
2015-May-15 06:00N 25°36' W 079°36'9215.3 120 / 191019.810.8 26.1 27.9
2015-May-15 00:00N 24°18' W 080°30'11018.3 080 / 141018.510.8 1.027.1 28.0
2015-May-14 18:00N 23°30' W 082°18'10818.0 110 / 121018.810.8 1.027.4 28.1
2015-May-14 12:00N 22°48' W 084°06'   120 / 81018.010.8 0.526.2 28.0
Track history (hours):
 
Tides and Currents Weather Stations Pressure Air Temp Water Temp Dewpoint Dewpoint Depression Visibility Wind Speed Wind Dir Waves Ship Positions

Carmen

Last reported at 2015-May-24 12:00 UTC. Time now 2015-May-24 13:23 UTC.
Position N 37°54' W 070°18'.

Length 228 m; draft 8.9 m.

Type: Cargo ship. MMSI: 266339000.

Wind from 250 at 6 knots

Waves 0.5 meters (2 feet), 2 second period

Barometer 1030.7 mb
Air temperature 17.5 ° C
Visibility: greater than 10.8 NM
Water temperature 25.8 ° C

Date/timePositionNaut miles runAvg speedWind from/ knotsBaromVisibWave heightAir tempDewpointWater temp
2015-May-24 12:00N 37°54' W 070°18'511.3 250 / 61030.710.8 0.517.5 25.8
2015-May-24 11:33N 37°55' W 070°24'1715.5
2015-May-24 10:28N 38°07' W 070°40'1313.9
2015-May-24 09:33N 38°15' W 070°51'3112.6
2015-May-24 07:05N 38°37' W 071°21'9 8.4
2015-May-24 06:00N 38°42' W 071°30'2316.2 230 / 81029.610.8 13.3 15.3
2015-May-24 04:33N 38°59' W 071°51'1414.2
2015-May-24 03:33N 39°08' W 072°04'1413.9
2015-May-24 02:33N 39°18' W 072°17'1413.7
2015-May-24 01:34N 39°27' W 072°30'1413.7
2015-May-24 00:34N 39°37' W 072°43'1017.4
2015-May-24 00:00N 39°42' W 072°54'510.2 230 / 161029.010.8 0.511.9 13.9
2015-May-23 23:31N 39°46' W 072°56'1313.6
2015-May-23 22:32N 39°55' W 073°10'1313.1
2015-May-23 21:33N 40°04' W 073°22'1413.0
2015-May-23 20:28N 40°14' W 073°34'1313.0
2015-May-23 19:30N 40°24' W 073°46'1313.9
2015-May-23 18:34N 40°31' W 073°60'10 9.8
2015-May-23 17:34N 40°39' W 074°08'3 3.2
2015-May-23 16:33N 40°42' W 074°09'0 0.0
2015-May-23 15:33N 40°42' W 074°09'0 0.0
2015-May-23 14:33N 40°42' W 074°09'0 0.0
2015-May-23 13:33N 40°42' W 074°09'0 0.0
2015-May-23 12:33N 40°42' W 074°09'0 0.0
2015-May-23 11:33N 40°42' W 074°09'0 0.0
2015-May-23 10:33N 40°42' W 074°09'2 2.1
2015-May-23 09:33N 40°40' W 074°08'5 4.6
2015-May-23 08:33N 40°38' W 074°03'1111.1
2015-May-23 07:33N 40°29' W 073°54'9 8.7
2015-May-23 06:33N 40°22' W 073°47'356638.0
2015-May-23 06:00N 46°18' W 073°48'372545.2 320 / 231021.810.8 14.6 14.4
2015-May-23 05:19N 40°06' W 073°45'1012.7
2015-May-23 04:33N 39°57' W 073°44'1312.7
2015-May-23 03:33N 39°44' W 073°44'1312.9
2015-May-23 02:33N 39°32' W 073°50'1313.1
2015-May-23 01:32N 39°20' W 073°56'1413.4
2015-May-23 00:32N 39°07' W 074°03'814.2
2015-May-23 00:00N 39°00' W 074°06'8113.5 230 / 171018.410.8 1.016.9 15.2
2015-May-22 18:00N 37°48' W 074°54'7212.0 250 / 121019.410.8 0.517.6 15.5
2015-May-22 12:00N 36°54' W 075°54'6015.7 330 / 191018.610.8 1.514.5 17.5
2015-May-22 08:09N 37°53' W 076°10'5418.7
2015-May-22 05:17N 38°45' W 076°26'2615.1
2015-May-22 03:32N 39°11' W 076°29'4 4.2
2015-May-22 02:32N 39°15' W 076°32'0 0.0
2015-May-21 22:23N 39°15' W 076°32'0 0.0
2015-May-21 17:32N 39°15' W 076°32'0 0.0
2015-May-21 16:32N 39°15' W 076°32'0 0.0
2015-May-21 15:23N 39°15' W 076°32'0 0.0
2015-May-21 12:08N 39°15' W 076°32'0 0.0
2015-May-21 09:29N 39°15' W 076°32'7 7.1
2015-May-21 08:29N 39°10' W 076°25'1212.6
2015-May-21 07:32N 38°58' W 076°24'5817.8
2015-May-21 04:16N 38°01' W 076°12'151 5.3
2015-May-20 00:00N 35°36' W 075°18'5712.9 260 / 161013.0 5.4 0.521.5 18.9
2015-May-19 19:34N 34°43' W 075°44'1616.4
2015-May-19 18:33N 34°32' W 075°59'69121.0
2015-May-19 18:00N 33°24' W 076°06'58132.3 230 / 171016.410.8 0.528.6 24.9
2015-May-19 17:33N 34°21' W 076°14'1716.5
2015-May-19 16:32N 34°10' W 076°29'7215.9
2015-May-19 12:00N 33°24' W 077°36'4914.2 250 / 121017.710.8 0.523.8 24.1
2015-May-19 08:32N 32°57' W 078°25'3614.3
2015-May-19 06:00N 32°36' W 079°00'4813.8 230 / 141019.310.8 23.4 24.4
2015-May-19 02:33N 32°13' W 079°49'1414.4
2015-May-19 01:33N 32°06' W 080°04'1616.3
2015-May-19 00:33N 31°58' W 080°20'1424.2
2015-May-19 00:00N 31°54' W 080°36'3 6.2 180 / 161019.910.8 0.523.9 24.5
2015-May-18 23:33N 31°56' W 080°38'1413.6
2015-May-18 22:33N 32°02' W 080°53'9 8.6
2015-May-18 21:34N 32°05' W 081°02'3 3.2
2015-May-18 20:32N 32°05' W 081°06'0 0.0
2015-May-18 19:33N 32°05' W 081°06'0 0.0
2015-May-18 18:33N 32°05' W 081°06'0 0.0
2015-May-18 17:32N 32°05' W 081°06'0 0.0
2015-May-18 16:33N 32°05' W 081°06'0 0.0
2015-May-18 15:32N 32°05' W 081°06'0 0.0
2015-May-18 14:32N 32°05' W 081°06'0 0.0
2015-May-18 13:32N 32°05' W 081°06'0 0.0
2015-May-18 12:32N 32°05' W 081°06'0 0.0
2015-May-18 11:32N 32°05' W 081°06'0 0.0
2015-May-18 10:32N 32°05' W 081°06'0 0.0
2015-May-18 09:32N 32°05' W 081°06'0 0.0
2015-May-18 08:32N 32°05' W 081°06'0 0.0
2015-May-18 07:32N 32°05' W 081°06'0 0.0
2015-May-18 06:32N 32°05' W 081°06'0 0.0
2015-May-18 05:33N 32°05' W 081°06'0 0.0
2015-May-18 04:32N 32°05' W 081°06'0 0.0
2015-May-18 03:32N 32°05' W 081°06'0 0.0
2015-May-18 02:32N 32°05' W 081°06'0 0.0
2015-May-18 01:32N 32°05' W 081°06'0 0.0
2015-May-18 00:32N 32°05' W 081°06'0 0.0
2015-May-17 23:32N 32°05' W 081°06'0 0.0
2015-May-17 22:32N 32°05' W 081°06'0 0.0
2015-May-17 21:32N 32°05' W 081°06'0 0.0
2015-May-17 20:32N 32°05' W 081°06'0 0.0
2015-May-17 19:33N 32°05' W 081°06'0 0.0
2015-May-17 18:32N 32°05' W 081°06'0 0.0
2015-May-17 17:32N 32°05' W 081°06'0 0.0
2015-May-17 16:32N 32°05' W 081°06'0 0.0
2015-May-17 15:32N 32°05' W 081°06'0 0.0
2015-May-17 14:32N 32°05' W 081°06'0 0.0
2015-May-17 13:32N 32°05' W 081°06'0 0.0
2015-May-17 12:32N 32°05' W 081°06'0 0.0
2015-May-17 11:32N 32°05' W 081°06'0 0.0
2015-May-17 10:32N 32°05' W 081°06'0 0.1
2015-May-17 09:34N 32°05' W 081°06'0 0.1
2015-May-17 08:34N 32°05' W 081°06'8 7.8
2015-May-17 07:33N 32°04' W 080°57'1312.7
2015-May-17 06:34N 31°58' W 080°44'1010.5
2015-May-17 05:33N 31°51' W 080°34'8 8.4
2015-May-17 04:33N 31°43' W 080°35'40 8.8
2015-May-17 00:00N 31°06' W 080°54'12 0.7 080 / 81023.010.8 0.523.5 24.7
2015-May-16 06:00N 30°54' W 080°54'6510.8 120 / 121024.110.8 22.9 23.3
2015-May-16 00:00N 30°00' W 080°12'9415.6 080 / 161023.110.8 1.023.8 27.1
2015-May-15 18:00N 28°36' W 079°24'7212.0 080 / 171022.910.8 1.024.9 27.9
2015-May-15 12:00N 27°24' W 079°18'6417.2 090 / 141021.110.8 1.025.6 28.0
2015-May-15 08:18N 26°21' W 079°28'1418.3
2015-May-15 07:33N 26°08' W 079°30'1818.3
2015-May-15 06:33N 25°49' W 079°33'1424.2
2015-May-15 06:00N 25°36' W 079°36'9215.3 120 / 191019.810.8 26.1 27.9
2015-May-15 00:00N 24°18' W 080°30'11018.3 080 / 141018.510.8 1.027.1 28.0
2015-May-14 18:00N 23°30' W 082°18'10818.0 110 / 121018.810.8 1.027.4 28.1
2015-May-14 12:00N 22°48' W 084°06'   120 / 81018.010.8 0.526.2 28.0

Dump ship's entire track history